Groton New London Airport Groton (New London) US
ICAO: KGON
IATA: GON
Category: Medium
Scheduled Services: No

Elevation: 9 ft
TransAlt. 18000 ft.

Airport Communications:
PROVIDENCE APP/DEP:125.75
ATIS:127
CLNC DEL:119.85
CTAF:125.6
GND:121.65
ARNG OPS:126.2
BRIDGEPORT RDO:122.1
TWR:125.6

KGON Zoom In..

Runways:

(A) RW 05 length 5000 ft width 150 ft
ILS 111.30 / hdg 48

(B) RW 15 length 4000 ft width 100 ft
---- / hdg 149

(C) RW 23 length 5000 ft width 150 ft
---- / hdg 228

(D) RW 33 length 4000 ft width 100 ft
---- / hdg 329

Location; KGON
Day. 22 / Time. 03.56 Zulu
* Altimeter: 30.20
* Temperature: 00° c. 32°f.
* Wind from: 360° Speed 03 kn.
Dewpoint: -02° c.
Visibility: 6 Statute Miles.
Clouds: Overcast 5000 ft.
Conditions: Mist.

KGON 220356Z AUTO 36003KT 6SM BR OVC050 00/M02 A3020 RMK AO2 SLP227 T00001017


Wind From 360°
Speed 03 kn.

jpsM music video
CHECK IT OUT

jpsM - It Moves..

 
jpsmedia.com for Web Design  worldairports.se 2018   terms of use